Time;durP1;ratioP1;P1;durP2;ratioP2;P2;SDS_P1;SDS_P2;PMS_P1;PMS_P2;Temp;Humidity;BMP_temperature;BMP_pressure;BME280_temperature;BME280_humidity;BME280_pressure;Samples;Min_cycle;Max_cycle;Signal;HPM_P1;HPM_P2
2022/05/26 00:01:37;;;;;;;2.90;2.40;;;;;;;14.40;75.68;101661.28;6252738;23;20004;-77
2022/05/26 00:04:04;;;;;;;3.55;2.53;;;;;;;14.39;75.38;101656.09;6227570;23;20006;-77
2022/05/26 00:06:29;;;;;;;4.60;2.50;;;;;;;14.38;75.55;101662.38;6251671;23;20008;-78
2022/05/26 00:08:56;;;;;;;5.80;2.30;;;;;;;14.37;75.56;101661.56;6254267;23;20004;-78
2022/05/26 00:11:25;;;;;;;4.72;2.70;;;;;;;14.37;75.78;101658.88;6252179;23;20011;-77
2022/05/26 00:13:51;;;;;;;5.28;2.40;;;;;;;14.35;75.98;101651.94;6256073;23;20014;-77
2022/05/26 00:16:18;;;;;;;4.45;2.30;;;;;;;14.36;75.85;101654.50;6225055;23;20083;-78
2022/05/26 00:18:44;;;;;;;4.18;2.30;;;;;;;14.35;76.06;101655.44;6255562;23;20008;-78
2022/05/26 00:21:09;;;;;;;5.72;2.60;;;;;;;14.33;76.35;101653.91;6252652;23;20028;-77
2022/05/26 00:23:35;;;;;;;6.40;2.90;;;;;;;14.33;76.55;101664.59;6255369;23;20012;-78
2022/05/26 00:26:00;;;;;;;7.97;2.70;;;;;;;14.32;76.82;101665.53;6253574;23;20000;-77
2022/05/26 00:28:26;;;;;;;6.05;2.63;;;;;;;14.31;76.34;101675.41;6252243;23;20083;-77
2022/05/26 00:30:53;;;;;;;8.50;3.45;;;;;;;14.30;76.44;101670.16;6252611;23;20062;-78
2022/05/26 00:33:19;;;;;;;6.82;2.90;;;;;;;14.30;76.83;101673.69;6256337;23;20000;-78
2022/05/26 00:35:45;;;;;;;9.00;2.83;;;;;;;14.30;77.05;101676.34;6254896;23;20023;-78
2022/05/26 00:38:12;;;;;;;6.80;2.92;;;;;;;14.29;77.06;101676.47;6256539;23;20418;-78
2022/05/26 00:40:38;;;;;;;7.65;2.90;;;;;;;14.31;76.74;101674.56;6253077;23;20000;-78
2022/05/26 00:43:05;;;;;;;6.18;2.65;;;;;;;14.28;76.99;101670.28;6259146;23;20015;-78
2022/05/26 00:45:37;;;;;;;6.28;3.00;;;;;;;14.29;77.33;101673.78;6230038;23;20440;-78
2022/05/26 00:48:07;;;;;;;7.70;3.30;;;;;;;14.30;77.02;101678.19;6255966;23;20008;-78
2022/05/26 00:50:42;;;;;;;9.25;3.42;;;;;;;14.30;77.34;101681.69;6258629;22;20006;-79
2022/05/26 00:53:25;;;;;;;6.75;3.20;;;;;;;14.31;76.52;101671.88;6253870;23;20020;-78
2022/05/26 00:56:00;;;;;;;10.18;3.38;;;;;;;14.31;77.02;101674.56;6253277;23;20071;-78
2022/05/26 00:58:30;;;;;;;9.98;3.28;;;;;;;14.29;77.79;101676.47;6256221;23;20095;-79
2022/05/26 01:00:58;;;;;;;11.30;3.70;;;;;;;14.30;77.21;101678.19;6227403;23;20004;-79
2022/05/26 01:03:33;;;;;;;6.15;3.70;;;;;;;14.28;77.76;101672.97;6252937;23;20008;-79
2022/05/26 01:06:13;;;;;;;11.15;3.90;;;;;;;14.29;77.22;101679.13;6226866;23;20460;-78
2022/05/26 01:08:59;;;;;;;9.43;3.95;;;;;;;14.33;76.75;101680.63;6253785;23;20058;-78
2022/05/26 01:11:27;;;;;;;6.80;3.45;;;;;;;14.32;76.81;101685.13;6201220;23;20009;-78
2022/05/26 01:14:00;;;;;;;10.00;4.07;;;;;;;14.33;77.56;101678.78;6253204;23;20089;-79
2022/05/26 01:16:56;;;;;;;7.95;3.60;;;;;;;14.34;77.47;101682.31;6253803;23;20004;-79
2022/05/26 01:19:56;;;;;;;9.15;4.35;;;;;;;14.36;76.56;101680.38;6252225;23;20067;-79
2022/05/26 01:22:40;;;;;;;10.32;3.83;;;;;;;14.36;76.96;101678.53;6253096;23;20008;-79
2022/05/26 01:25:08;;;;;;;10.00;4.20;;;;;;;14.34;77.66;101682.31;6250368;23;20440;-80
2022/05/26 01:27:37;;;;;;;10.07;4.43;;;;;;;14.33;77.72;101692.16;6253067;23;20004;-79
2022/05/26 01:30:02;;;;;;;;;;;;;;;14.42;75.68;101687.88;6254771;23;19999;-77
2022/05/26 01:33:07;;;;;;;11.37;4.53;;;;;;;14.37;76.56;101690.94;6225359;23;19963;-79
2022/05/26 01:35:54;;;;;;;11.48;4.78;;;;;;;14.35;77.77;101686.69;6255988;23;20014;-78
2022/05/26 01:38:36;;;;;;;13.50;4.47;;;;;;;14.34;77.82;101685.84;6256017;23;20004;-77
2022/05/26 01:41:25;;;;;;;9.70;4.50;;;;;;;14.36;77.30;101689.25;6256132;23;20011;-78
2022/05/26 01:44:09;;;;;;;10.50;4.90;;;;;;;14.34;78.20;101687.66;6186569;23;20071;-77
2022/05/26 01:46:42;;;;;;;11.43;5.22;;;;;;;14.32;77.92;101698.47;6257594;23;20001;-78
2022/05/26 01:49:22;;;;;;;12.50;5.32;;;;;;;14.31;77.91;101703.94;6258781;23;20011;-77
2022/05/26 01:52:13;;;;;;;15.60;5.82;;;;;;;14.32;77.65;101709.16;6261734;23;20000;-77
2022/05/26 01:54:47;;;;;;;8.45;5.70;;;;;;;14.30;78.24;101704.91;6263118;23;19984;-77
2022/05/26 01:57:22;;;;;;;12.85;7.53;;;;;;;14.29;78.60;101712.09;6264112;23;20020;-78
2022/05/26 01:59:54;;;;;;;15.73;6.35;;;;;;;14.28;78.70;101701.50;6264075;23;20095;-78
2022/05/26 02:02:23;;;;;;;16.42;6.90;;;;;;;14.28;78.19;101709.53;6265465;23;20004;-78
2022/05/26 02:05:07;;;;;;;14.27;6.82;;;;;;;14.30;77.83;101703.06;6265466;23;20036;-78
2022/05/26 02:07:45;;;;;;;13.77;7.47;;;;;;;14.28;78.30;101709.53;6263870;23;20010;-78
2022/05/26 02:10:16;;;;;;;13.43;7.20;;;;;;;14.25;78.81;101716.81;6263961;23;20003;-77
2022/05/26 02:13:09;;;;;;;18.20;7.70;;;;;;;14.27;78.52;101716.66;6240366;23;20008;-79
2022/05/26 02:15:43;;;;;;;16.85;8.07;;;;;;;14.24;78.90;101712.44;6261949;23;20035;-78
2022/05/26 02:18:15;;;;;;;15.27;8.05;;;;;;;14.26;78.74;101720.34;6261618;23;20004;-79
2022/05/26 02:20:51;;;;;;;18.27;7.82;;;;;;;14.27;78.75;101726.53;6259130;23;20475;-79
2022/05/26 02:23:26;;;;;;;17.17;7.60;;;;;;;14.23;79.07;101728.59;6260981;23;20011;-77
2022/05/26 02:25:52;;;;;;;16.05;7.40;;;;;;;14.23;79.18;101729.44;6268748;23;20007;-77
2022/05/26 02:28:18;;;;;;;18.25;7.75;;;;;;;14.21;79.50;101734.03;6235852;23;19997;-77
2022/05/26 02:30:44;;;;;;;15.50;7.20;;;;;;;14.21;79.28;101738.56;6264816;23;20401;-80
2022/05/26 02:33:14;;;;;;;14.98;7.60;;;;;;;14.19;79.37;101738.66;6263260;23;20004;-77
2022/05/26 02:35:45;;;;;;;18.88;7.30;;;;;;;14.21;79.05;101733.19;6263625;23;20019;-77
2022/05/26 02:38:15;;;;;;;13.48;7.85;;;;;;;14.22;79.15;101740.22;6268062;23;20010;-78
2022/05/26 02:40:42;;;;;;;15.80;7.57;;;;;;;14.20;79.09;101740.34;6266862;23;20058;-77
2022/05/26 02:43:19;;;;;;;17.40;7.90;;;;;;;14.21;79.08;101741.22;6266614;23;20083;-76
2022/05/26 02:46:09;;;;;;;17.77;7.35;;;;;;;14.21;79.18;101736.72;6266612;23;20008;-77
2022/05/26 02:49:02;;;;;;;13.95;7.10;;;;;;;14.21;79.44;101746.56;6265322;23;20016;-77
2022/05/26 02:51:54;;;;;;;18.60;7.90;;;;;;;14.22;78.45;101757.13;6265004;22;20083;-77
2022/05/26 02:55:04;;;;;;;18.05;8.20;;;;;;;14.21;78.81;101741.22;6264974;23;20006;-77
2022/05/26 02:57:38;;;;;;;18.80;8.40;;;;;;;14.19;79.26;101752.03;6217870;23;20008;-77
2022/05/26 03:00:09;;;;;;;18.50;7.78;;;;;;;14.19;79.35;101745.84;6261981;23;20004;-77
2022/05/26 03:02:50;;;;;;;22.60;8.45;;;;;;;14.20;79.36;101753.72;6261509;23;20064;-77
2022/05/26 03:05:26;;;;;;;15.35;8.00;;;;;;;14.17;79.28;101751.31;6235961;23;20020;-77
2022/05/26 03:07:54;;;;;;;15.50;8.25;;;;;;;14.18;79.56;101752.13;6262741;23;20008;-77
2022/05/26 03:10:27;;;;;;;17.98;8.98;;;;;;;14.17;79.66;101753.97;6237835;23;20373;-77
2022/05/26 03:12:57;;;;;;;21.88;8.48;;;;;;;14.16;79.43;101754.94;6265559;23;20006;-77
2022/05/26 03:15:22;;;;;;;20.58;8.63;;;;;;;14.13;79.58;101752.50;6267125;23;20027;-77
2022/05/26 03:17:48;;;;;;;17.30;8.77;;;;;;;14.14;79.52;101756.00;6265232;23;20031;-78
2022/05/26 03:20:17;;;;;;;22.63;8.45;;;;;;;14.12;79.78;101756.16;6270755;23;20011;-79
2022/05/26 03:22:42;;;;;;;20.08;8.63;;;;;;;14.11;79.91;101750.91;6267527;23;20015;-78
2022/05/26 03:25:07;;;;;;;22.40;8.88;;;;;;;14.06;80.09;101759.28;6266387;23;20052;-79
2022/05/26 03:27:33;;;;;;;25.00;9.13;;;;;;;14.06;79.67;101756.63;6271120;23;20028;-79
2022/05/26 03:29:59;;;;;;;24.63;9.00;;;;;;;14.07;79.53;101764.50;6269409;23;20004;-76
2022/05/26 03:32:25;;;;;;;19.17;8.27;;;;;;;14.06;79.82;101769.97;6267076;23;20054;-77
2022/05/26 03:43:06;;;;;;;20.83;7.85;;;;;;;14.03;79.98;101778.22;6265165;23;20027;-77
2022/05/26 03:45:33;;;;;;;21.60;7.88;;;;;;;14.02;80.70;101781.84;6269480;23;20004;-78
2022/05/26 03:47:59;;;;;;;19.98;8.40;;;;;;;14.00;79.64;101781.94;6271411;23;20054;-77
2022/05/26 03:50:25;;;;;;;24.48;8.90;;;;;;;14.00;80.73;101786.47;6263342;22;20004;-77
2022/05/26 03:52:51;;;;;;;21.92;7.32;;;;;;;14.00;79.84;101786.47;6259517;23;20012;-76
2022/05/26 03:55:17;;;;;;;19.73;8.05;;;;;;;13.98;79.87;101785.72;6260283;23;20026;-77
2022/05/26 03:57:43;;;;;;;30.05;8.18;;;;;;;13.97;80.35;101792.03;6261761;23;20042;-77
2022/05/26 04:00:09;;;;;;;20.90;7.65;;;;;;;13.94;80.56;101786.91;6261539;23;20055;-76
2022/05/26 04:02:35;;;;;;;20.63;7.47;;;;;;;13.90;80.70;101798.81;6263302;23;20008;-78
2022/05/26 04:05:00;;;;;;;22.85;7.63;;;;;;;13.87;80.76;101789.19;6259949;23;20521;-77
2022/05/26 04:07:25;;;;;;;20.23;7.70;;;;;;;13.82;80.58;101792.25;6265012;23;19999;-78
2022/05/26 04:09:51;;;;;;;20.65;6.95;;;;;;;13.82;80.78;101805.59;6266489;23;20250;-78
2022/05/26 04:12:18;;;;;;;23.73;7.93;;;;;;;13.81;80.50;101801.19;6266712;23;20004;-77
2022/05/26 04:14:43;;;;;;;21.58;6.90;;;;;;;13.82;80.76;101799.38;6266366;23;20231;-78
2022/05/26 04:17:09;;;;;;;20.92;7.53;;;;;;;13.79;81.11;101804.94;6270433;23;20007;-77
2022/05/26 04:19:35;;;;;;;21.30;7.78;;;;;;;13.80;80.82;101806.66;6269353;23;20012;-77
2022/05/26 04:22:17;;;;;;;21.02;6.97;;;;;;;13.79;80.61;101808.47;6265281;23;20004;-77
2022/05/26 04:24:47;;;;;;;25.48;7.28;;;;;;;13.80;80.57;101820.00;6268625;23;20055;-77
2022/05/26 04:27:15;;;;;;;24.38;7.25;;;;;;;13.77;81.07;101810.44;6267411;23;20440;-77
2022/05/26 04:29:40;;;;;;;21.38;7.03;;;;;;;13.78;81.60;101822.78;6266604;23;20004;-78
2022/05/26 04:32:07;;;;;;;23.90;7.10;;;;;;;13.77;81.37;101818.44;6269167;23;20000;-77
2022/05/26 04:34:32;;;;;;;22.38;7.28;;;;;;;13.79;81.50;101820.97;6267037;23;20058;-77
2022/05/26 04:36:57;;;;;;;20.48;7.20;;;;;;;13.80;80.96;101820.00;6265132;23;20004;-78
2022/05/26 04:39:23;;;;;;;18.97;7.13;;;;;;;13.79;81.08;101821.84;6263155;23;20020;-78
2022/05/26 04:41:48;;;;;;;23.63;6.85;;;;;;;13.79;81.30;101821.84;6267680;23;20239;-78
2022/05/26 04:44:16;;;;;;;19.75;6.45;;;;;;;13.79;81.33;101827.19;6269687;23;20004;-78
2022/05/26 04:46:42;;;;;;;22.67;8.20;;;;;;;13.80;81.49;101826.19;6270056;23;19996;-78
2022/05/26 04:49:08;;;;;;;25.52;6.55;;;;;;;13.81;81.73;101819.06;6268376;23;20055;-77
2022/05/26 04:51:35;;;;;;;22.50;7.38;;;;;;;13.80;81.78;101831.53;6271244;22;19988;-78
2022/05/26 04:54:04;;;;;;;26.17;7.90;;;;;;;13.80;81.58;101834.19;6270364;23;20147;-77
2022/05/26 04:56:30;;;;;;;22.67;6.93;;;;;;;13.86;81.23;101843.59;6270579;23;20031;-78
2022/05/26 04:58:55;;;;;;;22.00;6.63;;;;;;;13.87;81.41;101843.47;6269056;23;20015;-77
2022/05/26 05:01:21;;;;;;;22.83;6.90;;;;;;;13.88;81.66;101841.66;6270739;23;20000;-77
2022/05/26 05:03:47;;;;;;;21.25;6.97;;;;;;;13.91;82.02;101851.25;6270361;23;20008;-79
2022/05/26 05:06:13;;;;;;;24.00;6.82;;;;;;;13.93;81.94;101855.50;6269481;23;20085;-78
2022/05/26 05:08:41;;;;;;;23.75;7.07;;;;;;;13.96;81.32;101862.47;6243672;23;20023;-79
2022/05/26 05:11:06;;;;;;;24.83;7.50;;;;;;;13.99;81.27;101859.53;6269348;23;20012;-80
2022/05/26 05:13:32;;;;;;;24.15;7.10;;;;;;;13.96;81.17;101865.97;6268825;23;20019;-79
2022/05/26 05:16:12;;;;;;;22.45;7.03;;;;;;;14.02;81.30;101865.53;6241441;23;20004;-79
2022/05/26 05:18:37;;;;;;;21.23;7.30;;;;;;;14.04;81.03;101868.91;6269006;23;20000;-79
2022/05/26 05:21:10;;;;;;;23.53;7.27;;;;;;;14.09;81.19;101865.91;6270339;23;20004;-80
2022/05/26 05:23:41;;;;;;;26.73;6.97;;;;;;;14.09;81.06;101865.03;6270711;23;20238;-77
2022/05/26 05:26:10;;;;;;;29.23;7.72;;;;;;;14.14;80.84;101876.22;6269882;23;20004;-78
2022/05/26 05:28:40;;;;;;;26.33;7.97;;;;;;;14.15;80.75;101876.13;6272580;22;20020;-77
2022/05/26 05:31:22;;;;;;;25.17;6.93;;;;;;;14.17;80.83;101887.56;6271703;23;20035;-77
2022/05/26 05:33:56;;;;;;;23.23;6.78;;;;;;;14.22;80.63;101887.19;6271455;22;20004;-77
2022/05/26 05:36:26;;;;;;;29.08;7.45;;;;;;;14.24;80.66;101890.63;6271002;23;20004;-77
2022/05/26 05:38:51;;;;;;;;;;;;;;;14.35;79.53;101895.97;6270966;23;20398;-77
2022/05/26 05:41:18;;;;;;;22.02;7.15;;;;;;;14.35;80.69;101884.44;6267579;23;19910;-77
2022/05/26 05:43:44;;;;;;;33.13;8.40;;;;;;;14.40;79.65;101890.28;6241491;23;20032;-77
2022/05/26 05:46:11;;;;;;;29.23;6.95;;;;;;;14.43;79.97;101890.91;6244347;23;20000;-77
2022/05/26 05:48:37;;;;;;;20.50;7.40;;;;;;;14.47;79.95;101888.88;6268791;23;20015;-77
2022/05/26 05:51:03;;;;;;;27.13;7.65;;;;;;;14.54;80.02;101900.78;6243347;23;20007;-77
2022/05/26 05:53:28;;;;;;;23.55;7.30;;;;;;;14.58;79.79;101893.38;6269451;23;20004;-77
2022/05/26 05:55:53;;;;;;;23.67;7.05;;;;;;;14.63;79.89;101895.75;6268500;23;19996;-77
2022/05/26 05:58:19;;;;;;;22.40;7.20;;;;;;;14.66;79.47;101903.53;6268782;23;20052;-77
2022/05/26 06:00:44;;;;;;;25.75;7.85;;;;;;;14.74;79.37;101896.63;6269020;23;19997;-76
2022/05/26 06:03:10;;;;;;;32.87;7.63;;;;;;;14.87;78.51;101901.00;6269400;23;20032;-77
2022/05/26 06:05:36;;;;;;;24.55;7.28;;;;;;;14.94;79.01;101910.28;6268431;22;20257;-77
2022/05/26 06:08:01;;;;;;;21.63;7.35;;;;;;;15.03;78.74;101912.19;6263548;23;20000;-76
2022/05/26 06:10:29;;;;;;;27.05;8.32;;;;;;;15.10;78.49;101913.41;6267113;23;20019;-76
2022/05/26 06:12:54;;;;;;;20.92;7.55;;;;;;;15.19;78.47;101922.56;6270458;22;20046;-77
2022/05/26 06:15:20;;;;;;;19.27;6.93;;;;;;;15.24;77.63;101922.19;6275453;22;20011;-78
2022/05/26 06:17:46;;;;;;;21.92;7.28;;;;;;;15.31;77.33;101920.75;6242802;23;20252;-76
2022/05/26 06:20:13;;;;;;;22.67;7.55;;;;;;;15.36;77.06;101924.75;6266370;23;20034;-77
2022/05/26 06:22:45;;;;;;;25.38;7.97;;;;;;;15.44;76.63;101926.81;6267039;23;20004;-76
2022/05/26 06:25:11;;;;;;;22.58;7.88;;;;;;;15.47;76.22;101931.06;6266580;23;20024;-78
2022/05/26 06:30:23;;;;;;;23.33;8.07;;;;;;;15.87;76.29;101939.44;6264345;23;20065;-77
2022/05/26 06:38:21;;;;;;;27.80;8.98;;;;;;;16.40;73.60;101941.34;6267620;23;20055;-77
2022/05/26 06:40:48;;;;;;;19.50;7.90;;;;;;;16.54;73.14;101950.91;6269985;23;19992;-77
2022/05/26 06:43:14;;;;;;;21.45;8.60;;;;;;;16.60;71.58;101944.16;6247594;22;20012;-78
2022/05/26 06:45:40;;;;;;;18.75;8.32;;;;;;;16.80;71.66;101942.44;6271302;22;20029;-77
2022/05/26 06:48:07;;;;;;;21.60;8.70;;;;;;;16.79;70.67;101949.66;6272628;22;20052;-78
2022/05/26 06:50:32;;;;;;;23.20;8.90;;;;;;;16.92;70.97;101954.84;6243895;23;20064;-77
2022/05/26 06:52:58;;;;;;;22.02;9.00;;;;;;;16.90;70.46;101959.47;6264670;23;20007;-76
2022/05/26 06:55:23;;;;;;;26.40;9.93;;;;;;;16.89;70.62;101954.28;6266756;23;20004;-77
2022/05/26 06:57:48;;;;;;;22.13;8.40;;;;;;;16.98;70.31;101956.16;6268219;23;20012;-77
2022/05/26 07:00:15;;;;;;;22.17;8.67;;;;;;;16.92;70.03;101970.09;6270964;22;20023;-77
2022/05/26 07:02:41;;;;;;;21.45;8.57;;;;;;;16.94;69.35;101965.47;6264997;23;20261;-76
2022/05/26 07:05:08;;;;;;;24.52;9.07;;;;;;;16.99;69.52;101963.22;6263054;23;20019;-77
2022/05/26 07:07:35;;;;;;;16.75;7.78;;;;;;;17.04;68.22;101968.19;6264523;23;20007;-77
2022/05/26 07:10:01;;;;;;;17.38;7.07;;;;;;;17.18;68.52;101973.22;6239759;23;20060;-77
2022/05/26 07:12:26;;;;;;;15.60;7.25;;;;;;;17.35;67.86;101969.06;6266855;23;20044;-76
2022/05/26 07:14:54;;;;;;;20.60;7.65;;;;;;;17.39;67.17;101974.03;6268546;23;20008;-77
2022/05/26 07:17:20;;;;;;;16.70;7.03;;;;;;;17.47;68.29;101977.88;6267758;23;20460;-77
2022/05/26 07:19:46;;;;;;;17.88;7.28;;;;;;;17.42;66.71;101975.59;6270150;23;19992;-77
2022/05/26 07:22:11;;;;;;;15.30;6.97;;;;;;;17.47;66.21;101981.41;6268715;23;20007;-77
2022/05/26 07:24:39;;;;;;;16.90;7.30;;;;;;;17.47;65.86;101985.91;6270159;23;20011;-77
2022/05/26 07:27:05;;;;;;;17.88;7.05;;;;;;;17.49;65.58;101987.50;6242159;23;20019;-77
2022/05/26 07:29:30;;;;;;;17.02;7.13;;;;;;;17.52;64.88;101986.38;6271477;22;20000;-78
2022/05/26 07:31:56;;;;;;;20.20;7.30;;;;;;;17.62;66.05;101992.66;6271057;22;19988;-76
2022/05/26 07:34:21;;;;;;;20.38;7.10;;;;;;;17.60;65.95;101989.22;6274553;22;20013;-78
2022/05/26 07:42:20;;;;;;;15.80;6.80;;;;;;;17.73;64.72;102003.28;6271649;22;20018;-77
2022/05/26 07:44:48;;;;;;;15.57;6.70;;;;;;;17.84;64.32;102006.88;6271338;22;19995;-78
2022/05/26 07:47:14;;;;;;;13.55;6.10;;;;;;;18.01;63.58;102006.22;6271494;23;20026;-78
2022/05/26 07:49:42;;;;;;;14.90;6.22;;;;;;;18.00;63.90;101999.16;6269076;22;20039;-77
2022/05/26 07:52:09;;;;;;;15.82;7.15;;;;;;;17.91;63.20;102011.56;6270660;22;19996;-77
2022/05/26 07:54:35;;;;;;;15.30;6.18;;;;;;;17.94;62.52;101999.72;6269094;23;20004;-77
2022/05/26 07:57:01;;;;;;;16.17;6.43;;;;;;;18.12;63.07;102003.41;6263403;23;20020;-77
2022/05/26 07:59:30;;;;;;;12.73;5.85;;;;;;;18.11;62.96;101996.34;6260570;23;20011;-77
2022/05/26 08:01:56;;;;;;;13.65;6.10;;;;;;;18.20;62.52;102004.56;6260463;23;20012;-78
2022/05/26 08:04:22;;;;;;;12.68;6.05;;;;;;;18.40;62.02;102013.50;6263697;23;20007;-78
2022/05/26 08:06:51;;;;;;;13.75;6.78;;;;;;;18.74;62.10;102007.72;6263467;23;20011;-78
2022/05/26 08:09:18;;;;;;;;;;;;;;;19.08;62.96;102009.94;6269645;23;20053;-79
2022/05/26 08:11:44;;;;;;;12.70;5.78;;;;;;;19.25;60.94;102013.72;6245985;23;19939;-78
2022/05/26 08:14:10;;;;;;;15.13;5.68;;;;;;;19.41;58.01;102014.81;6269322;22;20441;-80
2022/05/26 08:16:36;;;;;;;13.00;5.43;;;;;;;19.89;58.67;102014.78;6267923;23;20011;-78
2022/05/26 08:19:04;;;;;;;13.13;6.00;;;;;;;20.00;57.29;102003.81;6266820;23;20004;-78
2022/05/26 08:21:29;;;;;;;16.77;5.38;;;;;;;20.60;56.52;102013.16;6274944;22;20050;-78
2022/05/26 08:23:55;;;;;;;16.63;5.45;;;;;;;20.76;54.91;102010.63;6274705;22;20000;-79
2022/05/26 08:26:22;;;;;;;14.68;4.22;;;;;;;20.74;54.72;102014.50;6245157;22;20018;-81
2022/05/26 08:28:49;;;;;;;10.80;4.70;;;;;;;20.69;53.74;102015.78;6247877;22;20019;-80
2022/05/26 08:31:15;;;;;;;13.35;4.82;;;;;;;20.56;53.11;102022.56;6271864;22;20068;-78
2022/05/26 08:33:41;;;;;;;12.20;4.85;;;;;;;20.66;52.90;102020.66;6268758;22;20022;-81
2022/05/26 08:36:12;;;;;;;10.75;4.07;;;;;;;20.62;52.46;102030.06;6248398;22;19992;-79
2022/05/26 08:38:39;;;;;;;12.27;4.00;;;;;;;20.73;51.98;102029.81;6274279;22;20004;-82
2022/05/26 08:41:10;;;;;;;10.00;4.78;;;;;;;20.98;52.24;102028.16;6248078;22;19992;-81
2022/05/26 08:43:43;;;;;;;13.48;5.68;;;;;;;21.13;52.73;102020.34;6274446;22;19991;-80
2022/05/26 08:46:13;;;;;;;14.35;4.78;;;;;;;21.25;53.62;102024.50;6274762;22;19999;-80
2022/05/26 08:49:06;;;;;;;11.90;5.47;;;;;;;21.42;53.40;102030.00;6274535;22;20003;-80
2022/05/26 08:51:34;;;;;;;16.73;8.98;;;;;;;21.60;51.47;102025.41;6274123;22;20023;-80
2022/05/26 08:54:01;;;;;;;15.48;8.13;;;;;;;21.57;50.91;102023.00;6274441;22;20011;-81
2022/05/26 08:56:30;;;;;;;17.13;8.10;;;;;;;21.73;51.71;102029.50;6274506;22;20014;-80
2022/05/26 08:59:03;;;;;;;19.02;7.53;;;;;;;21.77;50.85;102044.41;6274351;22;19996;-81
2022/05/26 09:01:32;;;;;;;9.82;5.78;;;;;;;22.20;49.99;102047.06;6249247;22;20027;-80
2022/05/26 09:03:58;;;;;;;;;;;;;;;22.54;52.22;102039.72;6274888;22;20091;-80
2022/05/26 09:06:25;;;;;;;13.88;6.18;;;;;;;22.88;50.14;102037.88;6247974;22;19899;-80
2022/05/26 09:14:38;;;;;;;10.23;4.57;;;;;;;23.08;47.50;102033.84;6273341;22;20004;-79
2022/05/26 09:17:10;;;;;;;9.98;6.75;;;;;;;23.11;46.67;102035.34;6274674;22;19995;-81
2022/05/26 09:19:44;;;;;;;12.23;6.50;;;;;;;23.01;47.24;102040.91;6274666;22;19988;-81
2022/05/26 09:22:55;;;;;;;10.75;5.95;;;;;;;23.01;47.62;102043.63;6248619;22;19996;-81
2022/05/26 09:25:39;;;;;;;11.15;6.25;;;;;;;22.88;46.53;102043.28;6268799;22;20062;-80
2022/05/26 09:28:09;;;;;;;11.45;6.03;;;;;;;22.44;45.89;102040.91;6274490;22;20000;-80
2022/05/26 09:30:35;;;;;;;12.98;7.57;;;;;;;22.59;46.31;102052.75;6274538;22;20032;-80
2022/05/26 09:33:01;;;;;;;11.55;8.07;;;;;;;22.79;47.28;102057.88;6274565;22;19992;-80
2022/05/26 09:35:30;;;;;;;13.45;8.52;;;;;;;22.84;46.79;102058.19;6248593;22;20012;-80
2022/05/26 09:37:56;;;;;;;;;;;;;;;23.12;48.84;102066.88;6275035;22;19988;-80
2022/05/26 09:40:24;;;;;;;12.20;8.55;;;;;;;22.63;46.88;102070.38;6274614;22;19902;-80
2022/05/26 09:43:10;;;;;;;12.95;8.40;;;;;;;22.56;47.01;102069.34;6274509;22;19988;-80
2022/05/26 09:45:44;;;;;;;9.77;5.90;;;;;;;22.78;46.52;102064.28;6274666;22;20052;-79
2022/05/26 09:48:26;;;;;;;9.98;5.28;;;;;;;22.87;47.30;102066.84;6277850;22;20008;-80
2022/05/26 09:51:04;;;;;;;9.48;5.82;;;;;;;22.70;46.44;102067.84;6252069;22;19996;-80
2022/05/26 09:53:35;;;;;;;10.98;6.40;;;;;;;22.53;47.05;102080.50;6277624;22;20019;-80
2022/05/26 09:56:01;;;;;;;12.25;7.30;;;;;;;22.39;46.97;102068.47;6277943;22;19992;-80
2022/05/26 09:58:34;;;;;;;13.45;8.18;;;;;;;22.49;46.85;102068.31;6251747;22;19994;-81
2022/05/26 10:01:02;;;;;;;13.88;8.18;;;;;;;22.53;45.84;102073.25;6251851;22;19989;-81
2022/05/26 10:03:33;;;;;;;11.38;7.43;;;;;;;22.62;45.95;102079.50;6278137;22;19988;-81
2022/05/26 10:06:17;;;;;;;10.10;6.88;;;;;;;22.75;47.24;102075.44;6277460;22;19997;-79
2022/05/26 10:08:54;;;;;;;9.30;5.90;;;;;;;22.78;45.03;102075.13;6277791;22;19995;-80
2022/05/26 10:11:37;;;;;;;11.15;6.22;;;;;;;22.80;46.23;102076.66;6276766;22;19991;-82
2022/05/26 10:14:28;;;;;;;7.95;5.38;;;;;;;23.07;45.62;102078.22;6251780;22;20004;-80
2022/05/26 10:17:05;;;;;;;9.10;5.15;;;;;;;23.06;44.29;102079.22;6277102;22;19996;-79
2022/05/26 10:20:10;;;;;;;10.02;5.60;;;;;;;23.05;45.27;102082.09;6277504;22;20018;-79
2022/05/26 10:22:53;;;;;;;10.52;5.97;;;;;;;22.96;45.87;102074.97;6248670;22;20019;-80
2022/05/26 10:25:50;;;;;;;10.32;6.95;;;;;;;22.82;45.95;102085.47;6276747;22;20000;-79
2022/05/26 10:28:56;;;;;;;12.57;6.22;;;;;;;23.30;45.73;102079.34;6276238;22;19996;-79
2022/05/26 10:31:58;;;;;;;8.48;5.53;;;;;;;23.37;43.88;102073.09;6248927;22;19994;-80
2022/05/26 10:34:39;;;;;;;10.15;6.15;;;;;;;23.40;43.57;102077.34;6247850;22;20080;-80
2022/05/26 10:37:34;;;;;;;9.73;6.60;;;;;;;23.42;44.51;102080.72;6275740;22;20012;-80
2022/05/26 10:40:24;;;;;;;9.18;6.43;;;;;;;23.43;44.73;102079.69;6276294;22;20015;-80
2022/05/26 10:42:57;;;;;;;11.95;5.95;;;;;;;23.59;44.62;102081.50;6276691;22;20016;-79
2022/05/26 10:45:33;;;;;;;9.98;5.70;;;;;;;24.00;42.80;102070.56;6276207;22;19992;-79
2022/05/26 10:48:15;;;;;;;9.98;5.85;;;;;;;23.91;41.73;102079.75;6276012;22;20019;-81
2022/05/26 10:51:01;;;;;;;8.80;5.28;;;;;;;24.07;42.89;102079.69;6275439;22;20064;-80
2022/05/26 10:53:36;;;;;;;7.55;5.65;;;;;;;24.26;41.97;102069.41;6276624;22;20060;-80
2022/05/26 10:56:39;;;;;;;8.93;5.20;;;;;;;24.34;42.65;102066.63;6250553;23;20068;-80
2022/05/26 10:59:21;;;;;;;8.05;4.88;;;;;;;24.20;42.37;102077.22;6248891;22;20000;-81
2022/05/26 11:01:59;;;;;;;9.48;5.13;;;;;;;24.14;42.16;102079.81;6273436;22;19988;-80
2022/05/26 11:04:43;;;;;;;12.70;4.53;;;;;;;23.95;42.13;102081.94;6274454;22;20040;-81
2022/05/26 11:07:17;;;;;;;10.43;4.32;;;;;;;24.16;42.04;102084.06;6244336;23;20004;-80
2022/05/26 11:09:55;;;;;;;8.00;4.68;;;;;;;24.38;41.89;102084.25;6243475;23;20012;-80
2022/05/26 11:12:36;;;;;;;11.35;4.97;;;;;;;24.26;41.82;102080.25;6244605;23;19992;-80
2022/05/26 11:18:11;;;;;;;9.13;4.72;;;;;;;23.77;41.55;102070.44;6244370;23;20008;-81
2022/05/26 11:20:53;;;;;;;9.23;5.35;;;;;;;23.79;41.99;102080.09;6242888;23;20001;-80
2022/05/26 11:23:19;;;;;;;8.60;5.30;;;;;;;23.63;42.86;102086.44;6243469;23;19988;-79
2022/05/26 11:25:50;;;;;;;8.85;5.40;;;;;;;23.47;42.73;102081.03;6243350;23;20023;-80
2022/05/26 11:28:39;;;;;;;7.85;5.18;;;;;;;23.58;42.41;102080.69;6244436;23;19988;-79
2022/05/26 11:37:01;;;;;;;10.13;5.78;;;;;;;22.90;42.75;102073.78;6244346;23;20008;-79
2022/05/26 11:39:40;;;;;;;8.70;5.13;;;;;;;22.68;43.05;102077.97;6244245;23;19993;-79
2022/05/26 11:42:13;;;;;;;7.88;5.00;;;;;;;22.51;43.59;102071.69;6218713;23;20001;-80
2022/05/26 11:44:53;;;;;;;13.57;6.38;;;;;;;22.28;43.83;102077.75;6218371;23;20008;-78
2022/05/26 11:47:24;;;;;;;9.75;6.13;;;;;;;22.12;43.35;102070.41;6243981;23;20031;-79
2022/05/26 11:49:51;;;;;;;12.98;6.13;;;;;;;22.10;45.27;102068.84;6243887;23;20000;-80
2022/05/26 11:52:45;;;;;;;9.38;5.82;;;;;;;22.20;44.56;102060.59;6218222;23;20032;-80
2022/05/26 11:55:31;;;;;;;10.80;6.20;;;;;;;22.31;44.48;102055.75;6244160;23;19993;-80
2022/05/26 11:58:12;;;;;;;12.48;6.28;;;;;;;22.49;46.70;102043.97;6243855;23;19997;-80
2022/05/26 12:00:41;;;;;;;7.70;5.82;;;;;;;22.45;43.46;102042.59;6243939;23;20008;-81
2022/05/26 12:03:22;;;;;;;7.57;5.45;;;;;;;22.75;45.18;102051.94;6244159;23;20035;-80
2022/05/26 12:05:56;;;;;;;9.68;4.57;;;;;;;22.65;44.58;102051.25;6257357;22;20011;-81
2022/05/26 12:08:34;;;;;;;6.05;4.05;;;;;;;22.62;44.21;102052.44;6246884;22;19998;-81
2022/05/26 12:11:13;;;;;;;9.40;4.18;;;;;;;22.76;43.65;102042.78;6272352;22;20003;-81
2022/05/26 12:13:43;;;;;;;8.35;4.50;;;;;;;22.61;44.00;102039.06;6246267;22;20015;-80
2022/05/26 12:16:24;;;;;;;7.43;4.05;;;;;;;22.64;44.28;102052.28;6246410;22;20011;-81
2022/05/26 12:19:04;;;;;;;7.82;2.83;;;;;;;22.51;45.04;102045.47;6272600;22;20007;-80